createdAt,value
2024-03-22T00:01:16.995Z,58.06
2024-03-22T00:03:24.434Z,60.93
2024-03-22T00:05:32.163Z,67.67
2024-03-22T00:07:39.810Z,65.90
2024-03-22T00:09:47.181Z,60.45
2024-03-22T00:11:54.499Z,56.05
2024-03-22T00:14:02.226Z,55.44
2024-03-22T00:16:10.341Z,57.98
2024-03-22T00:18:18.025Z,59.16
2024-03-22T00:20:25.396Z,62.21
2024-03-22T00:22:33.071Z,70.18
2024-03-22T00:24:40.523Z,66.52
2024-03-22T00:26:48.267Z,61.25
2024-03-22T00:28:55.655Z,56.97
2024-03-22T00:31:03.343Z,55.31
2024-03-22T00:33:10.675Z,57.98
2024-03-22T00:35:18.545Z,59.68
2024-03-22T00:37:25.955Z,61.28
2024-03-22T00:39:33.738Z,67.72
2024-03-22T00:41:41.079Z,68.12
2024-03-22T00:43:48.784Z,63.01
2024-03-22T00:45:56.216Z,57.57
2024-03-22T00:48:04.004Z,55.81
2024-03-22T00:50:12.109Z,57.54
2024-03-22T00:52:19.771Z,59.79
2024-03-22T00:54:27.424Z,61.21
2024-03-22T00:56:35.279Z,69.63
2024-03-22T00:58:42.843Z,68.71
2024-03-22T01:00:50.194Z,63.17
2024-03-22T01:02:57.568Z,58.95
2024-03-22T01:05:06.380Z,55.37
2024-03-22T01:07:13.670Z,56.56
2024-03-22T01:09:20.997Z,58.96
2024-03-22T01:11:28.511Z,60.69
2024-03-22T01:13:35.859Z,68.40
2024-03-22T01:15:43.491Z,66.55
2024-03-22T01:17:50.796Z,61.16
2024-03-22T01:19:58.134Z,56.28
2024-03-22T01:22:05.695Z,55.78
2024-03-22T01:24:13.061Z,58.22
2024-03-22T01:26:20.743Z,60.70
2024-03-22T01:28:28.187Z,66.10
2024-03-22T01:30:37.918Z,65.54
2024-03-22T01:32:45.410Z,60.77
2024-03-22T01:34:53.657Z,56.07
2024-03-22T01:37:01.592Z,55.83
2024-03-22T01:39:08.927Z,56.97
2024-03-22T01:41:16.432Z,59.88
2024-03-22T01:43:23.913Z,66.88
2024-03-22T01:45:35.629Z,65.04
2024-03-22T01:47:44.202Z,60.65
2024-03-22T01:49:54.517Z,55.58
2024-03-22T01:52:02.155Z,55.56
2024-03-22T01:54:12.463Z,57.84
2024-03-22T01:56:20.615Z,59.82
2024-03-22T01:58:28.463Z,65.33
2024-03-22T02:00:35.852Z,67.93
2024-03-22T02:02:43.650Z,62.54
2024-03-22T02:04:53.877Z,56.98
2024-03-22T02:07:01.317Z,54.98
2024-03-22T02:09:10.447Z,56.77
2024-03-22T02:11:17.807Z,58.56
2024-03-22T02:13:25.549Z,60.89
2024-03-22T02:15:32.907Z,68.13
2024-03-22T02:17:40.257Z,67.26
2024-03-22T02:19:47.622Z,60.47
2024-03-22T02:21:55.278Z,55.12
2024-03-22T02:24:02.715Z,55.05
2024-03-22T02:26:11.134Z,57.29
2024-03-22T02:28:18.569Z,58.68
2024-03-22T02:30:25.906Z,60.80
2024-03-22T02:32:33.614Z,67.56
2024-03-22T02:34:51.230Z,67.01
2024-03-22T02:37:08.132Z,59.81
2024-03-22T02:39:15.502Z,54.76
2024-03-22T02:41:22.877Z,55.45
2024-03-22T02:43:30.251Z,57.63
2024-03-22T02:45:37.672Z,59.18
2024-03-22T02:47:45.054Z,62.06
2024-03-22T02:49:52.387Z,69.43
2024-03-22T02:51:59.714Z,63.73
2024-03-22T02:54:07.576Z,58.24
2024-03-22T02:56:14.864Z,54.27
2024-03-22T02:58:23.928Z,55.38
2024-03-22T03:00:31.252Z,57.61
2024-03-22T03:02:38.575Z,59.47
2024-03-22T03:04:45.896Z,59.89
2024-03-22T03:06:53.180Z,67.56
2024-03-22T03:09:00.565Z,65.86
2024-03-22T03:11:08.557Z,61.10
2024-03-22T03:13:15.898Z,54.88
2024-03-22T03:15:23.392Z,54.64
2024-03-22T03:17:30.796Z,56.47
2024-03-22T03:19:40.025Z,59.32
2024-03-22T03:21:47.543Z,59.63
2024-03-22T03:23:54.930Z,66.40
2024-03-22T03:26:02.269Z,65.88
2024-03-22T03:28:10.034Z,60.00
2024-03-22T03:30:17.928Z,54.14
2024-03-22T03:32:25.889Z,54.93
2024-03-22T03:34:33.255Z,55.76
2024-03-22T03:36:40.998Z,60.34
2024-03-22T03:38:48.395Z,65.14
2024-03-22T03:40:56.517Z,65.33
2024-03-22T03:43:03.920Z,60.75
2024-03-22T03:45:12.834Z,54.46
2024-03-22T03:47:20.597Z,54.23
2024-03-22T03:49:27.930Z,56.08
2024-03-22T03:51:35.275Z,57.49
2024-03-22T03:53:42.952Z,61.01
2024-03-22T03:55:50.377Z,67.25
2024-03-22T03:57:58.339Z,64.85
2024-03-22T04:00:07.078Z,59.15
2024-03-22T04:02:14.623Z,53.73
2024-03-22T04:04:21.951Z,54.28
2024-03-22T04:06:29.293Z,56.97
2024-03-22T04:08:36.908Z,58.39
2024-03-22T04:10:53.054Z,60.16
2024-03-22T04:13:00.774Z,68.09
2024-03-22T04:15:10.579Z,65.52
2024-03-22T04:17:18.622Z,59.20
2024-03-22T04:19:26.414Z,53.88
2024-03-22T04:21:33.747Z,54.66
2024-03-22T04:23:41.456Z,56.34
2024-03-22T04:25:57.188Z,58.51
2024-03-22T04:28:04.782Z,59.12
2024-03-22T04:30:14.300Z,59.87
2024-03-22T04:32:21.654Z,68.15
2024-03-22T04:34:29.659Z,69.06
2024-03-22T04:36:37.007Z,60.84
2024-03-22T04:38:44.367Z,54.65
2024-03-22T04:40:52.383Z,54.24
2024-03-22T04:42:59.759Z,55.72
2024-03-22T04:45:08.063Z,57.90
2024-03-22T04:47:16.093Z,59.44
2024-03-22T04:49:23.609Z,60.96
2024-03-22T04:51:31.034Z,68.69
2024-03-22T04:53:38.441Z,67.58
2024-03-22T04:55:46.704Z,60.89
2024-03-22T04:57:55.160Z,54.64
2024-03-22T05:00:02.931Z,53.75
2024-03-22T05:02:10.717Z,55.60
2024-03-22T05:04:18.034Z,57.21
2024-03-22T05:06:25.381Z,58.81
2024-03-22T05:08:32.750Z,59.64
2024-03-22T05:10:40.146Z,61.23
2024-03-22T05:12:47.917Z,69.33
2024-03-22T05:14:55.303Z,68.03
2024-03-22T05:17:02.755Z,61.68
2024-03-22T05:19:10.103Z,55.56
2024-03-22T05:21:17.787Z,53.70
2024-03-22T05:23:25.283Z,55.87
2024-03-22T05:25:32.988Z,57.25
2024-03-22T05:27:40.708Z,60.58
2024-03-22T05:29:48.120Z,65.41
2024-03-22T05:31:55.485Z,67.32
2024-03-22T05:34:02.803Z,61.50
2024-03-22T05:36:10.495Z,55.26
2024-03-22T05:38:17.833Z,53.47
2024-03-22T05:40:25.222Z,55.26
2024-03-22T05:42:32.548Z,57.14
2024-03-22T05:44:39.920Z,58.81
2024-03-22T05:46:47.314Z,60.33
2024-03-22T05:48:55.018Z,67.82
2024-03-22T05:51:02.470Z,67.29
2024-03-22T05:53:09.858Z,60.95
2024-03-22T05:55:17.336Z,54.75
2024-03-22T05:57:45.442Z,53.91
2024-03-22T05:59:54.295Z,55.28
2024-03-22T06:02:02.204Z,57.48
2024-03-22T06:04:09.819Z,59.89
2024-03-22T06:06:17.287Z,65.62
2024-03-22T06:08:25.992Z,68.30
2024-03-22T06:10:33.347Z,62.07
2024-03-22T06:12:42.105Z,56.41
2024-03-22T06:14:49.856Z,53.17
2024-03-22T06:16:57.170Z,55.39
2024-03-22T06:19:04.495Z,56.43
2024-03-22T06:21:12.286Z,59.40
2024-03-22T06:23:19.661Z,59.57
2024-03-22T06:25:27.376Z,65.07
2024-03-22T06:27:34.735Z,68.03
2024-03-22T06:29:42.221Z,62.34
2024-03-22T06:31:51.243Z,56.71
2024-03-22T06:34:03.196Z,54.80
2024-03-22T06:36:11.693Z,56.21
2024-03-22T06:38:19.200Z,57.18
2024-03-22T06:40:26.594Z,58.78
2024-03-22T06:42:33.978Z,60.10
2024-03-22T06:44:41.424Z,66.21
2024-03-22T06:46:48.771Z,67.96
2024-03-22T06:48:56.697Z,62.22
2024-03-22T06:51:04.520Z,55.22
2024-03-22T06:53:12.027Z,53.84
2024-03-22T06:55:19.718Z,53.95
2024-03-22T06:57:27.042Z,56.41
2024-03-22T06:59:34.399Z,59.03
2024-03-22T07:01:41.797Z,59.49
2024-03-22T07:03:49.269Z,60.52
2024-03-22T07:05:56.984Z,66.96
2024-03-22T07:08:05.762Z,68.22
2024-03-22T07:10:13.635Z,59.58
2024-03-22T07:12:20.960Z,54.00
2024-03-22T07:14:29.231Z,54.07
2024-03-22T07:16:38.138Z,55.76
2024-03-22T07:18:45.812Z,59.01
2024-03-22T07:20:53.263Z,60.58
2024-03-22T07:23:01.000Z,66.26
2024-03-22T07:25:10.397Z,65.90
2024-03-22T07:27:18.130Z,60.39
2024-03-22T07:29:25.623Z,53.34
2024-03-22T07:31:33.456Z,53.13
2024-03-22T07:33:41.589Z,54.54
2024-03-22T07:35:49.047Z,57.34
2024-03-22T07:37:56.663Z,58.43
2024-03-22T07:40:04.256Z,60.01
2024-03-22T07:42:11.601Z,66.44
2024-03-22T07:44:20.784Z,65.64
2024-03-22T07:46:28.426Z,60.88
2024-03-22T07:48:35.767Z,55.67
2024-03-22T07:50:43.162Z,53.48
2024-03-22T07:52:51.565Z,54.92
2024-03-22T07:54:59.337Z,58.71
2024-03-22T07:57:06.851Z,58.66
2024-03-22T07:59:14.209Z,63.98
2024-03-22T08:01:21.649Z,65.23
2024-03-22T08:03:29.120Z,59.26
2024-03-22T08:05:37.036Z,52.94
2024-03-22T08:07:44.965Z,54.43
2024-03-22T08:09:52.278Z,55.51
2024-03-22T08:11:59.602Z,55.68
2024-03-22T08:14:07.229Z,58.20
2024-03-22T08:16:14.665Z,60.63
2024-03-22T08:18:22.082Z,65.54
2024-03-22T08:20:29.549Z,64.96
2024-03-22T08:22:36.893Z,57.15
2024-03-22T08:24:44.451Z,54.70
2024-03-22T08:26:51.912Z,55.01
2024-03-22T08:28:59.269Z,57.90
2024-03-22T08:31:08.743Z,58.19
2024-03-22T08:33:16.097Z,60.88
2024-03-22T08:35:23.600Z,64.47
2024-03-22T08:37:30.950Z,64.26
2024-03-22T08:39:38.537Z,55.45
2024-03-22T08:41:46.362Z,52.25
2024-03-22T08:43:53.838Z,53.59
2024-03-22T08:46:01.245Z,56.04
2024-03-22T08:48:09.646Z,58.58
2024-03-22T08:50:17.299Z,58.69
2024-03-22T08:52:25.834Z,63.11
2024-03-22T08:54:33.539Z,63.25
2024-03-22T08:56:41.393Z,58.18
2024-03-22T08:58:49.118Z,52.34
2024-03-22T09:00:56.463Z,53.84
2024-03-22T09:03:04.478Z,56.52
2024-03-22T09:05:12.542Z,57.93
2024-03-22T09:07:20.256Z,58.88
2024-03-22T09:09:27.603Z,60.05
2024-03-22T09:11:34.935Z,64.16
2024-03-22T09:13:42.364Z,66.17
2024-03-22T09:15:50.040Z,59.81
2024-03-22T09:17:57.392Z,54.44
2024-03-22T09:20:06.244Z,54.15
2024-03-22T09:22:13.646Z,55.44
2024-03-22T09:24:21.153Z,59.13
2024-03-22T09:26:28.650Z,60.28
2024-03-22T09:28:36.167Z,61.45
2024-03-22T09:30:50.044Z,62.01
2024-03-22T09:33:05.274Z,63.61
2024-03-22T09:35:15.616Z,60.92
2024-03-22T09:37:23.382Z,55.40
2024-03-22T09:39:30.844Z,54.92
2024-03-22T09:41:47.279Z,57.21
2024-03-22T09:43:59.761Z,57.79
2024-03-22T09:46:08.485Z,59.67
2024-03-22T09:48:16.594Z,60.44
2024-03-22T09:50:24.377Z,61.36
2024-03-22T09:52:33.406Z,62.57
2024-03-22T09:54:42.803Z,59.80
2024-03-22T09:56:53.105Z,55.50
2024-03-22T09:59:00.708Z,54.74
2024-03-22T10:01:08.782Z,57.62
2024-03-22T10:03:17.000Z,58.38
2024-03-22T10:05:24.458Z,58.80
2024-03-22T10:07:31.979Z,59.97
2024-03-22T10:09:39.507Z,61.10
2024-03-22T10:11:48.359Z,61.11
2024-03-22T10:13:56.431Z,61.46
2024-03-22T10:16:03.939Z,61.50
2024-03-22T10:18:13.180Z,61.62
2024-03-22T10:20:20.548Z,61.82
2024-03-22T10:22:29.423Z,61.58
2024-03-22T10:24:37.005Z,61.92
2024-03-22T10:26:46.590Z,61.43
2024-03-22T10:28:53.972Z,61.70
2024-03-22T10:31:01.470Z,61.80
2024-03-22T10:33:09.411Z,61.97
2024-03-22T10:35:17.925Z,61.68
2024-03-22T10:37:26.217Z,62.21
2024-03-22T10:39:35.229Z,62.37
2024-03-22T10:41:42.752Z,61.90
2024-03-22T10:43:50.343Z,56.11
2024-03-22T10:46:03.269Z,54.11
2024-03-22T10:48:13.080Z,55.02
2024-03-22T10:50:24.916Z,56.81
2024-03-22T10:52:54.392Z,57.86
2024-03-22T10:55:06.518Z,57.95
2024-03-22T10:57:17.307Z,58.94
2024-03-22T10:59:25.828Z,60.37
2024-03-22T11:01:39.235Z,61.12
2024-03-22T11:03:46.559Z,61.89
2024-03-22T11:05:58.000Z,62.17
2024-03-22T11:08:07.458Z,62.50
2024-03-22T11:10:16.669Z,59.83
2024-03-22T11:12:26.346Z,55.92
2024-03-22T11:14:33.675Z,55.07
2024-03-22T11:16:44.316Z,57.02
2024-03-22T11:18:51.668Z,57.57
2024-03-22T11:20:59.496Z,57.67
2024-03-22T11:23:07.576Z,60.00
2024-03-22T11:25:15.690Z,60.27
2024-03-22T11:27:23.170Z,60.83
2024-03-22T11:29:30.528Z,62.13
2024-03-22T11:31:38.052Z,65.74
2024-03-22T11:33:46.033Z,64.64
2024-03-22T11:35:53.395Z,56.76
2024-03-22T11:38:00.827Z,54.11
2024-03-22T11:40:11.492Z,53.95
2024-03-22T11:42:20.021Z,55.54
2024-03-22T11:44:27.721Z,58.37
2024-03-22T11:46:35.233Z,58.92
2024-03-22T11:48:44.125Z,59.22
2024-03-22T11:50:51.718Z,60.48
2024-03-22T11:52:59.541Z,61.43
2024-03-22T11:55:08.442Z,62.27
2024-03-22T11:57:17.481Z,63.36
2024-03-22T11:59:25.048Z,65.10
2024-03-22T12:03:45.096Z,54.95
2024-03-22T12:05:54.642Z,54.88
2024-03-22T12:08:02.040Z,57.08
2024-03-22T12:10:10.612Z,59.20
2024-03-22T12:12:18.359Z,59.11
2024-03-22T12:14:27.015Z,59.37
2024-03-22T12:16:37.511Z,60.82
2024-03-22T12:18:44.980Z,62.37
2024-03-22T12:20:52.379Z,68.20
2024-03-22T12:22:59.759Z,62.14
2024-03-22T12:25:10.762Z,56.80
2024-03-22T12:27:22.136Z,54.11
2024-03-22T12:29:30.790Z,55.69
2024-03-22T12:31:39.434Z,57.58
2024-03-22T12:33:47.724Z,58.84
2024-03-22T12:35:55.550Z,59.71
2024-03-22T12:38:03.806Z,60.90
2024-03-22T12:40:15.124Z,60.91
2024-03-22T12:42:23.181Z,63.31
2024-03-22T12:44:30.534Z,63.78
2024-03-22T12:46:37.950Z,57.48
2024-03-22T12:48:45.665Z,55.04
2024-03-22T12:50:54.281Z,56.01
2024-03-22T12:53:01.719Z,57.68
2024-03-22T12:55:10.842Z,58.62
2024-03-22T12:57:19.046Z,58.83
2024-03-22T12:59:26.577Z,60.53
2024-03-22T13:01:33.911Z,60.78
2024-03-22T13:03:41.602Z,61.68
2024-03-22T13:05:49.387Z,62.00
2024-03-22T13:07:56.921Z,63.54
2024-03-22T13:10:04.692Z,67.04
2024-03-22T13:12:12.328Z,57.65
2024-03-22T13:14:19.829Z,54.55
2024-03-22T13:16:27.494Z,55.65
2024-03-22T13:18:35.324Z,56.66
2024-03-22T13:20:43.108Z,58.76
2024-03-22T13:22:50.864Z,59.35
2024-03-22T13:24:58.364Z,60.01
2024-03-22T13:27:06.184Z,61.02
2024-03-22T13:29:15.153Z,60.78
2024-03-22T13:31:25.758Z,61.65
2024-03-22T13:33:34.567Z,62.46
2024-03-22T13:35:42.753Z,63.51
2024-03-22T13:37:50.081Z,59.85
2024-03-22T13:39:57.492Z,54.49
2024-03-22T13:42:04.950Z,53.93
2024-03-22T13:44:12.321Z,55.66
2024-03-22T13:46:19.731Z,57.48
2024-03-22T13:48:27.679Z,58.17
2024-03-22T13:50:35.625Z,59.25
2024-03-22T13:52:43.049Z,60.02
2024-03-22T13:54:51.071Z,59.48
2024-03-22T13:56:58.447Z,60.94
2024-03-22T13:59:06.413Z,60.94
2024-03-22T14:01:13.774Z,61.42
2024-03-22T14:03:21.211Z,61.69
2024-03-22T14:05:28.902Z,62.17
2024-03-22T14:07:36.602Z,63.02
2024-03-22T14:09:44.768Z,60.88
2024-03-22T14:11:52.134Z,55.42
2024-03-22T14:14:00.371Z,54.01
2024-03-22T14:16:09.099Z,55.39
2024-03-22T14:18:16.550Z,56.28
2024-03-22T14:20:23.905Z,56.66
2024-03-22T14:22:31.899Z,57.98
2024-03-22T14:24:40.333Z,58.76
2024-03-22T14:26:48.409Z,59.22
2024-03-22T14:28:55.807Z,59.93
2024-03-22T14:31:03.207Z,60.25
2024-03-22T14:33:10.613Z,60.36
2024-03-22T14:35:18.793Z,60.27
2024-03-22T14:37:26.234Z,60.67
2024-03-22T14:39:34.449Z,60.49
2024-03-22T14:41:41.855Z,61.00
2024-03-22T14:43:50.583Z,61.34
2024-03-22T14:45:58.285Z,61.40
2024-03-22T14:48:07.294Z,61.19
2024-03-22T14:50:14.827Z,61.49
2024-03-22T14:52:22.884Z,61.71
2024-03-22T14:54:30.250Z,61.27
2024-03-22T14:56:37.996Z,61.52
2024-03-22T14:58:46.275Z,61.60
2024-03-22T15:00:59.042Z,61.66
2024-03-22T15:03:06.921Z,61.62
2024-03-22T15:05:14.461Z,61.71
2024-03-22T15:07:23.613Z,61.63
2024-03-22T15:09:31.483Z,61.95
2024-03-22T15:11:38.999Z,61.67
2024-03-22T15:13:46.334Z,62.09
2024-03-22T15:15:57.307Z,67.66
2024-03-22T15:18:06.772Z,68.81
2024-03-22T15:20:16.040Z,62.55
2024-03-22T15:22:23.986Z,54.89
2024-03-22T15:24:31.703Z,51.42
2024-03-22T15:26:39.285Z,52.14
2024-03-22T15:28:47.281Z,53.24
2024-03-22T15:30:55.132Z,54.44
2024-03-22T15:33:04.311Z,56.95
2024-03-22T15:35:13.764Z,56.60
2024-03-22T15:37:22.330Z,57.19
2024-03-22T15:39:38.054Z,58.95
2024-03-22T15:42:12.286Z,58.99
2024-03-22T15:44:20.037Z,60.19
2024-03-22T15:46:27.376Z,61.22
2024-03-22T15:48:34.768Z,66.78
2024-03-22T15:50:42.404Z,70.80
2024-03-22T15:52:50.795Z,64.42
2024-03-22T15:54:58.902Z,59.80
2024-03-22T15:57:06.782Z,54.33
2024-03-22T15:59:14.172Z,53.62
2024-03-22T16:01:21.646Z,55.14
2024-03-22T16:03:29.010Z,56.08
2024-03-22T16:05:36.868Z,57.48
2024-03-22T16:07:44.235Z,59.29
2024-03-22T16:09:52.177Z,59.70
2024-03-22T16:11:59.598Z,60.68
2024-03-22T16:14:07.359Z,61.57
2024-03-22T16:16:14.690Z,68.90
2024-03-22T16:18:22.227Z,71.35
2024-03-22T16:20:30.388Z,64.56
2024-03-22T16:22:39.823Z,58.50
2024-03-22T16:24:47.256Z,53.88
2024-03-22T16:26:54.630Z,54.12
2024-03-22T16:29:02.127Z,55.89
2024-03-22T16:31:09.432Z,56.94
2024-03-22T16:33:16.779Z,58.42
2024-03-22T16:35:24.664Z,59.82
2024-03-22T16:37:31.964Z,60.23
2024-03-22T16:39:39.375Z,66.81
2024-03-22T16:41:46.750Z,69.36
2024-03-22T16:43:55.066Z,63.29
2024-03-22T16:46:03.493Z,57.07
2024-03-22T16:48:12.537Z,54.57
2024-03-22T16:50:20.447Z,55.94
2024-03-22T16:52:29.226Z,56.71
2024-03-22T16:54:36.856Z,58.18
2024-03-22T16:56:44.226Z,60.28
2024-03-22T16:58:52.005Z,61.06
2024-03-22T17:01:03.697Z,67.03
2024-03-22T17:03:11.861Z,69.69
2024-03-22T17:05:19.592Z,64.83
2024-03-22T17:07:27.262Z,60.28
2024-03-22T17:09:34.595Z,55.58
2024-03-22T17:11:42.205Z,54.68
2024-03-22T17:13:49.518Z,55.99
2024-03-22T17:15:58.144Z,57.55
2024-03-22T17:18:05.971Z,59.82
2024-03-22T17:20:15.374Z,61.77
2024-03-22T17:22:22.749Z,67.02
2024-03-22T17:24:30.043Z,67.92
2024-03-22T17:26:37.753Z,63.11
2024-03-22T17:28:45.339Z,57.84
2024-03-22T17:30:53.235Z,54.90
2024-03-22T17:33:00.549Z,56.16
2024-03-22T17:35:10.118Z,57.80
2024-03-22T17:37:18.299Z,60.28
2024-03-22T17:39:26.061Z,60.62
2024-03-22T17:41:34.303Z,68.80
2024-03-22T17:43:42.928Z,69.58
2024-03-22T17:45:59.636Z,63.21
2024-03-22T17:48:08.201Z,59.64
2024-03-22T17:50:15.742Z,55.77
2024-03-22T17:52:25.610Z,55.37
2024-03-22T17:54:33.722Z,57.12
2024-03-22T17:56:43.328Z,59.01
2024-03-22T17:58:50.748Z,61.61
2024-03-22T18:00:58.913Z,67.57
2024-03-22T18:03:07.182Z,68.07
2024-03-22T18:05:14.718Z,63.49
2024-03-22T18:07:22.272Z,60.41
2024-03-22T18:09:32.860Z,56.49
2024-03-22T18:11:40.719Z,55.52
2024-03-22T18:13:48.354Z,57.48
2024-03-22T18:15:55.813Z,59.97
2024-03-22T18:18:03.959Z,61.27
2024-03-22T18:20:14.777Z,64.83
2024-03-22T18:22:22.640Z,67.55
2024-03-22T18:24:30.071Z,62.17
2024-03-22T18:26:38.281Z,57.57
2024-03-22T18:28:45.614Z,55.52
2024-03-22T18:30:53.690Z,57.42
2024-03-22T18:33:01.365Z,59.29
2024-03-22T18:35:10.215Z,60.68
2024-03-22T18:37:19.830Z,67.00
2024-03-22T18:39:27.909Z,68.82
2024-03-22T18:41:35.907Z,62.97
2024-03-22T18:43:43.708Z,59.49
2024-03-22T18:45:51.107Z,55.47
2024-03-22T18:47:58.503Z,56.26
2024-03-22T18:50:09.961Z,57.67
2024-03-22T18:52:19.563Z,60.08
2024-03-22T18:54:28.776Z,67.39
2024-03-22T18:56:36.357Z,66.92
2024-03-22T18:58:44.197Z,61.42
2024-03-22T19:00:52.890Z,56.73
2024-03-22T19:03:01.395Z,55.34
2024-03-22T19:05:09.323Z,57.02
2024-03-22T19:07:16.914Z,58.81
2024-03-22T19:09:24.290Z,61.83
2024-03-22T19:11:31.946Z,69.11
2024-03-22T19:13:39.717Z,66.08
2024-03-22T19:15:57.071Z,61.16
2024-03-22T19:18:05.925Z,56.98
2024-03-22T19:20:15.960Z,57.25
2024-03-22T19:22:23.382Z,58.92
2024-03-22T19:24:31.094Z,64.72
2024-03-22T19:26:39.394Z,66.29
2024-03-22T19:28:47.118Z,62.08
2024-03-22T19:30:56.819Z,59.80
2024-03-22T19:33:04.364Z,55.84
2024-03-22T19:35:12.178Z,56.23
2024-03-22T19:37:19.540Z,58.54
2024-03-22T19:39:28.106Z,59.88
2024-03-22T19:41:35.715Z,67.47
2024-03-22T19:43:43.119Z,67.05
2024-03-22T19:45:51.197Z,64.32
2024-03-22T19:48:00.037Z,60.59
2024-03-22T19:50:10.468Z,57.22
2024-03-22T19:52:17.963Z,56.07
2024-03-22T19:54:26.188Z,58.98
2024-03-22T19:56:33.526Z,61.53
2024-03-22T19:58:40.852Z,66.38
2024-03-22T20:00:48.289Z,67.62
2024-03-22T20:02:55.633Z,62.99
2024-03-22T20:05:03.468Z,60.05
2024-03-22T20:07:11.103Z,56.57
2024-03-22T20:09:19.084Z,57.00
2024-03-22T20:11:26.954Z,59.11
2024-03-22T20:13:34.473Z,60.82
2024-03-22T20:15:42.503Z,66.66
2024-03-22T20:17:50.961Z,68.47
2024-03-22T20:19:58.337Z,63.81
2024-03-22T20:22:06.390Z,60.90
2024-03-22T20:24:13.877Z,58.68
2024-03-22T20:26:21.415Z,56.18
2024-03-22T20:28:28.763Z,57.18
2024-03-22T20:30:36.373Z,59.29
2024-03-22T20:32:44.186Z,66.31
2024-03-22T20:34:51.629Z,66.47
2024-03-22T20:36:58.945Z,62.75
2024-03-22T20:39:08.086Z,60.63
2024-03-22T20:41:15.519Z,57.00
2024-03-22T20:43:22.828Z,56.47
2024-03-22T20:45:30.183Z,58.51
2024-03-22T20:47:37.572Z,59.62
2024-03-22T20:49:44.872Z,65.68
2024-03-22T20:51:52.986Z,68.19
2024-03-22T20:54:00.748Z,63.65
2024-03-22T20:56:08.199Z,60.20
2024-03-22T20:58:15.691Z,56.83
2024-03-22T21:00:23.260Z,55.98
2024-03-22T21:02:30.630Z,58.10
2024-03-22T21:04:38.128Z,59.66
2024-03-22T21:06:45.422Z,67.05
2024-03-22T21:08:52.775Z,68.05
2024-03-22T21:11:00.485Z,62.83
2024-03-22T21:13:09.333Z,59.70
2024-03-22T21:15:17.288Z,56.18
2024-03-22T21:17:25.097Z,56.33
2024-03-22T21:19:32.945Z,59.36
2024-03-22T21:21:40.272Z,64.57
2024-03-22T21:23:47.604Z,66.74
2024-03-22T21:25:55.147Z,62.37
2024-03-22T21:28:02.653Z,59.50
2024-03-22T21:30:10.126Z,56.20
2024-03-22T21:32:17.447Z,57.14
2024-03-22T21:34:25.286Z,58.97
2024-03-22T21:36:32.787Z,66.14
2024-03-22T21:38:40.633Z,66.58
2024-03-22T21:40:47.998Z,62.42
2024-03-22T21:42:55.296Z,59.30
2024-03-22T21:45:02.576Z,56.27
2024-03-22T21:47:09.942Z,56.45
2024-03-22T21:49:17.626Z,58.47
2024-03-22T21:51:27.723Z,66.45
2024-03-22T21:53:35.055Z,65.47
2024-03-22T21:55:42.452Z,63.00
2024-03-22T21:57:49.774Z,59.92
2024-03-22T21:59:58.218Z,56.64
2024-03-22T22:02:05.748Z,57.03
2024-03-22T22:04:13.250Z,58.82
2024-03-22T22:06:20.961Z,60.63
2024-03-22T22:08:28.671Z,68.74
2024-03-22T22:10:36.587Z,67.53
2024-03-22T22:12:44.312Z,62.72
2024-03-22T22:14:52.003Z,59.85
2024-03-22T22:17:01.256Z,56.56
2024-03-22T22:19:08.621Z,57.47
2024-03-22T22:21:16.232Z,59.32
2024-03-22T22:23:24.325Z,60.21
2024-03-22T22:25:31.803Z,69.56
2024-03-22T22:27:39.342Z,69.37
2024-03-22T22:29:46.632Z,63.78
2024-03-22T22:31:53.987Z,61.09
2024-03-22T22:34:01.427Z,57.20
2024-03-22T22:36:08.847Z,55.94
2024-03-22T22:38:16.598Z,57.60
2024-03-22T22:40:24.602Z,59.60
2024-03-22T22:42:32.101Z,67.65
2024-03-22T22:44:39.433Z,67.42
2024-03-22T22:46:46.773Z,63.82
2024-03-22T22:48:54.054Z,60.37
2024-03-22T22:51:01.483Z,57.42
2024-03-22T22:53:09.193Z,56.62
2024-03-22T22:55:16.704Z,58.87
2024-03-22T22:57:24.239Z,60.74
2024-03-22T22:59:31.666Z,68.93
2024-03-22T23:01:38.989Z,68.16
2024-03-22T23:03:46.335Z,63.03
2024-03-22T23:05:53.703Z,59.84
2024-03-22T23:08:01.168Z,56.08
2024-03-22T23:10:08.475Z,56.39
2024-03-22T23:12:16.088Z,58.10
2024-03-22T23:14:23.452Z,60.95
2024-03-22T23:16:31.326Z,67.13
2024-03-22T23:18:38.589Z,67.42
2024-03-22T23:20:45.919Z,63.48
2024-03-22T23:22:53.239Z,60.12
2024-03-22T23:25:00.535Z,56.86
2024-03-22T23:27:08.329Z,56.27
2024-03-22T23:29:16.112Z,57.57
2024-03-22T23:31:23.445Z,60.36
2024-03-22T23:33:30.912Z,68.11
2024-03-22T23:35:39.037Z,67.96
2024-03-22T23:37:46.378Z,62.92
2024-03-22T23:39:53.678Z,60.31
2024-03-22T23:42:01.093Z,56.68
2024-03-22T23:44:09.076Z,56.64
2024-03-22T23:46:16.882Z,57.99
2024-03-22T23:48:24.219Z,60.69
2024-03-22T23:50:31.552Z,67.89
2024-03-22T23:52:38.906Z,68.16
2024-03-22T23:54:46.338Z,63.72
2024-03-22T23:56:59.585Z,60.67
2024-03-22T23:59:07.554Z,57.17
